createdAt,value
2023-03-16T00:02:21.370Z,7.93
2023-03-16T00:04:50.605Z,7.28
2023-03-16T00:07:18.588Z,9.18
2023-03-16T00:09:46.061Z,8.90
2023-03-16T00:12:17.007Z,9.93
2023-03-16T00:14:46.470Z,8.32
2023-03-16T00:17:19.768Z,10.10
2023-03-16T00:19:55.576Z,10.07
2023-03-16T00:22:25.500Z,8.57
2023-03-16T00:24:53.196Z,9.68
2023-03-16T00:27:23.291Z,9.13
2023-03-16T00:29:56.474Z,10.57
2023-03-16T00:32:26.794Z,7.97
2023-03-16T00:34:54.764Z,9.32
2023-03-16T00:37:23.951Z,7.15
2023-03-16T00:39:51.938Z,7.93
2023-03-16T00:42:20.491Z,7.82
2023-03-16T00:44:47.692Z,7.38
2023-03-16T00:47:15.470Z,8.05
2023-03-16T00:49:44.628Z,9.23
2023-03-16T00:52:16.836Z,9.15
2023-03-16T00:54:46.502Z,9.05
2023-03-16T00:57:16.793Z,7.45
2023-03-16T00:59:44.106Z,7.82
2023-03-16T01:02:12.992Z,8.15
2023-03-16T01:04:41.498Z,10.35
2023-03-16T01:07:12.727Z,8.82
2023-03-16T01:09:41.554Z,9.70
2023-03-16T01:12:15.785Z,9.77
2023-03-16T01:14:48.782Z,10.50
2023-03-16T01:17:18.433Z,9.90
2023-03-16T01:19:46.479Z,9.40
2023-03-16T01:22:14.243Z,9.57
2023-03-16T01:24:42.909Z,9.55
2023-03-16T01:27:10.564Z,9.80
2023-03-16T01:29:38.721Z,9.75
2023-03-16T01:32:07.715Z,10.70
2023-03-16T01:34:35.711Z,9.32
2023-03-16T01:37:04.041Z,9.55
2023-03-16T01:39:47.365Z,9.70
2023-03-16T01:42:15.281Z,9.90
2023-03-16T01:45:01.825Z,9.82
2023-03-16T01:47:38.690Z,10.15
2023-03-16T01:50:10.557Z,9.32
2023-03-16T01:52:40.465Z,9.60
2023-03-16T01:55:13.493Z,8.48
2023-03-16T01:57:43.856Z,10.25
2023-03-16T02:00:20.099Z,10.15
2023-03-16T02:03:07.642Z,9.00
2023-03-16T02:06:00.289Z,9.30
2023-03-16T02:08:29.963Z,8.77
2023-03-16T02:10:58.227Z,9.68
2023-03-16T02:13:36.965Z,9.82
2023-03-16T02:16:07.746Z,10.27
2023-03-16T02:18:36.736Z,10.45
2023-03-16T02:21:27.423Z,7.97
2023-03-16T02:23:55.537Z,9.20
2023-03-16T02:26:44.953Z,8.88
2023-03-16T02:29:18.992Z,7.95
2023-03-16T02:31:48.127Z,8.10
2023-03-16T02:34:18.081Z,7.82
2023-03-16T02:36:49.202Z,7.03
2023-03-16T02:39:19.875Z,7.30
2023-03-16T02:41:47.941Z,5.88
2023-03-16T02:44:25.364Z,6.43
2023-03-16T02:46:58.615Z,5.82
2023-03-16T02:49:33.059Z,5.80
2023-03-16T02:52:00.435Z,5.25
2023-03-16T02:54:28.088Z,5.43
2023-03-16T02:56:56.431Z,6.05
2023-03-16T02:59:24.824Z,6.45
2023-03-16T03:01:52.058Z,5.07
2023-03-16T03:04:19.523Z,5.35
2023-03-16T03:06:49.324Z,4.90
2023-03-16T03:09:16.730Z,4.72
2023-03-16T03:11:44.390Z,4.70
2023-03-16T03:14:11.623Z,4.47
2023-03-16T03:16:40.765Z,4.10
2023-03-16T03:19:10.221Z,3.78
2023-03-16T03:21:38.851Z,4.30
2023-03-16T03:24:08.776Z,3.17
2023-03-16T03:26:38.368Z,4.45
2023-03-16T03:29:12.533Z,4.32
2023-03-16T03:31:40.138Z,4.15
2023-03-16T03:34:07.987Z,5.10
2023-03-16T03:36:36.011Z,5.13
2023-03-16T03:39:07.355Z,5.57
2023-03-16T03:41:35.688Z,5.00
2023-03-16T03:44:05.211Z,5.38
2023-03-16T03:46:34.733Z,5.75
2023-03-16T03:49:05.516Z,5.18
2023-03-16T03:51:35.339Z,5.93
2023-03-16T03:54:06.381Z,5.80
2023-03-16T03:57:11.916Z,3.38
2023-03-16T03:59:43.789Z,4.07
2023-03-16T04:02:40.778Z,5.57
2023-03-16T04:05:16.119Z,6.28
2023-03-16T04:07:43.733Z,5.43
2023-03-16T04:10:13.184Z,5.13
2023-03-16T04:12:43.365Z,5.70
2023-03-16T04:15:13.476Z,5.97
2023-03-16T04:18:00.060Z,5.72
2023-03-16T04:20:30.035Z,5.82
2023-03-16T04:23:00.992Z,4.80
2023-03-16T04:25:31.069Z,5.85
2023-03-16T04:27:59.922Z,5.85
2023-03-16T04:30:33.192Z,5.28
2023-03-16T04:33:13.274Z,4.47
2023-03-16T04:35:41.955Z,5.57
2023-03-16T04:38:10.986Z,6.45
2023-03-16T04:40:45.954Z,6.03
2023-03-16T04:43:21.039Z,5.97
2023-03-16T04:45:49.740Z,6.13
2023-03-16T04:48:17.651Z,5.38
2023-03-16T04:50:46.542Z,6.22
2023-03-16T04:53:13.884Z,4.10
2023-03-16T04:55:42.300Z,6.18
2023-03-16T04:58:09.891Z,6.35
2023-03-16T05:00:41.576Z,6.13
2023-03-16T05:03:23.025Z,5.50
2023-03-16T05:05:51.247Z,6.07
2023-03-16T05:08:19.126Z,5.90
2023-03-16T05:10:50.171Z,5.45
2023-03-16T05:13:19.450Z,6.97
2023-03-16T05:15:49.015Z,5.32
2023-03-16T05:18:28.566Z,6.88
2023-03-16T05:20:56.905Z,6.57
2023-03-16T05:23:29.510Z,6.40
2023-03-16T05:26:01.326Z,6.57
2023-03-16T05:28:32.240Z,6.35
2023-03-16T05:31:10.304Z,6.35
2023-03-16T05:33:43.441Z,6.18
2023-03-16T05:36:15.232Z,7.18
2023-03-16T05:38:46.645Z,5.82
2023-03-16T05:41:23.357Z,7.65
2023-03-16T05:44:20.469Z,6.10
2023-03-16T05:47:14.578Z,7.15
2023-03-16T05:49:46.731Z,6.97
2023-03-16T05:52:26.357Z,6.63
2023-03-16T05:54:56.680Z,6.57
2023-03-16T05:57:24.365Z,7.20
2023-03-16T05:59:53.531Z,6.18
2023-03-16T06:02:22.479Z,6.50
2023-03-16T06:04:50.552Z,5.75
2023-03-16T06:07:18.805Z,6.63
2023-03-16T06:09:46.670Z,7.38
2023-03-16T06:12:16.854Z,6.53
2023-03-16T06:14:44.615Z,6.25
2023-03-16T06:17:12.042Z,6.97
2023-03-16T06:19:41.709Z,6.53
2023-03-16T06:22:10.572Z,7.10
2023-03-16T06:24:39.411Z,7.25
2023-03-16T06:27:08.355Z,6.35
2023-03-16T06:29:50.564Z,6.55
2023-03-16T06:32:18.451Z,7.03
2023-03-16T06:34:46.391Z,7.20
2023-03-16T06:37:16.339Z,7.25
2023-03-16T06:39:45.223Z,7.50
2023-03-16T06:42:13.058Z,6.65
2023-03-16T06:44:40.598Z,6.75
2023-03-16T06:47:11.018Z,7.35
2023-03-16T06:49:39.335Z,7.75
2023-03-16T06:52:17.316Z,6.85
2023-03-16T06:54:44.840Z,6.38
2023-03-16T06:57:14.410Z,7.07
2023-03-16T06:59:44.082Z,6.78
2023-03-16T07:02:15.601Z,6.28
2023-03-16T07:04:44.423Z,6.72
2023-03-16T07:07:12.703Z,7.63
2023-03-16T07:09:41.886Z,8.38
2023-03-16T07:12:11.124Z,8.15
2023-03-16T07:14:38.638Z,7.15
2023-03-16T07:17:06.999Z,6.35
2023-03-16T07:19:34.956Z,7.38
2023-03-16T07:22:04.285Z,7.18
2023-03-16T07:24:36.364Z,6.78
2023-03-16T07:27:04.477Z,6.78
2023-03-16T07:29:34.719Z,7.95
2023-03-16T07:32:04.365Z,6.28
2023-03-16T07:34:37.187Z,6.80
2023-03-16T07:37:05.886Z,5.53
2023-03-16T07:39:34.966Z,5.93
2023-03-16T07:42:09.056Z,6.68
2023-03-16T07:44:51.941Z,6.30
2023-03-16T07:47:20.526Z,6.25
2023-03-16T07:49:49.136Z,5.38
2023-03-16T07:52:17.540Z,5.82
2023-03-16T07:54:46.543Z,5.97
2023-03-16T07:57:14.913Z,6.15
2023-03-16T07:59:44.422Z,6.47
2023-03-16T08:02:17.396Z,4.80
2023-03-16T08:04:46.566Z,4.97
2023-03-16T08:07:17.417Z,5.82
2023-03-16T08:10:07.044Z,5.47
2023-03-16T08:12:46.958Z,5.95
2023-03-16T08:15:15.962Z,4.88
2023-03-16T08:17:44.546Z,5.35
2023-03-16T08:20:19.571Z,4.47
2023-03-16T08:22:50.172Z,4.70
2023-03-16T08:25:22.515Z,4.47
2023-03-16T08:28:05.315Z,5.03
2023-03-16T08:30:33.579Z,4.97
2023-03-16T08:33:40.051Z,5.10
2023-03-16T08:36:14.304Z,5.80
2023-03-16T08:41:31.193Z,5.10
2023-03-16T08:44:03.559Z,5.03
2023-03-16T08:46:31.814Z,5.60
2023-03-16T08:49:00.693Z,5.40
2023-03-16T08:51:30.125Z,5.00
2023-03-16T08:53:57.885Z,6.63
2023-03-16T08:56:25.777Z,5.63
2023-03-16T08:58:53.720Z,4.50
2023-03-16T09:01:22.650Z,5.32
2023-03-16T09:03:52.055Z,4.90
2023-03-16T09:06:20.160Z,4.97
2023-03-16T09:08:48.400Z,4.68
2023-03-16T09:11:19.173Z,4.57
2023-03-16T09:13:47.765Z,4.55
2023-03-16T09:16:16.787Z,4.28
2023-03-16T09:18:44.378Z,4.85
2023-03-16T09:21:16.211Z,4.53
2023-03-16T09:23:44.465Z,4.60
2023-03-16T09:26:13.590Z,4.68
2023-03-16T09:28:48.335Z,4.40
2023-03-16T09:31:21.465Z,4.15
2023-03-16T09:33:50.488Z,4.72
2023-03-16T09:36:19.023Z,3.78
2023-03-16T09:38:47.624Z,3.30
2023-03-16T09:41:40.732Z,3.97
2023-03-16T09:44:14.402Z,4.15
2023-03-16T09:46:49.071Z,5.05
2023-03-16T09:49:21.600Z,5.53
2023-03-16T09:51:59.670Z,4.78
2023-03-16T09:54:52.349Z,4.28
2023-03-16T09:57:36.153Z,4.05
2023-03-16T10:00:22.442Z,4.57
2023-03-16T10:02:50.112Z,4.30
2023-03-16T10:05:22.166Z,4.40
2023-03-16T10:08:04.684Z,4.13
2023-03-16T10:11:12.673Z,3.58
2023-03-16T10:13:46.551Z,3.63
2023-03-16T10:16:21.867Z,4.00
2023-03-16T10:18:54.614Z,3.90
2023-03-16T10:21:25.100Z,4.60
2023-03-16T10:23:56.495Z,3.85
2023-03-16T10:26:30.302Z,4.95
2023-03-16T10:28:58.136Z,4.35
2023-03-16T10:31:26.248Z,4.22
2023-03-16T10:34:03.258Z,3.80
2023-03-16T10:36:44.740Z,4.13
2023-03-16T10:39:17.091Z,4.43
2023-03-16T10:41:55.215Z,4.65
2023-03-16T10:44:29.276Z,4.82
2023-03-16T10:47:04.360Z,3.60
2023-03-16T10:49:47.382Z,4.80
2023-03-16T10:52:16.698Z,5.18
2023-03-16T10:55:10.750Z,4.63
2023-03-16T10:57:43.610Z,3.90
2023-03-16T11:00:21.424Z,4.45
2023-03-16T11:02:51.806Z,4.75
2023-03-16T11:05:20.183Z,3.78
2023-03-16T11:08:19.737Z,5.22
2023-03-16T11:10:58.220Z,4.80
2023-03-16T11:13:35.141Z,4.60
2023-03-16T11:16:15.230Z,5.53
2023-03-16T11:18:50.756Z,4.60
2023-03-16T11:21:52.133Z,6.75
2023-03-16T11:24:43.666Z,6.38
2023-03-16T11:27:33.831Z,5.15
2023-03-16T11:30:07.660Z,4.13
2023-03-16T11:32:40.796Z,4.07
2023-03-16T11:35:31.540Z,5.00
2023-03-16T11:38:09.834Z,4.50
2023-03-16T11:40:56.277Z,5.05
2023-03-16T11:43:48.177Z,5.20
2023-03-16T11:46:27.731Z,5.70
2023-03-16T11:49:34.561Z,5.75
2023-03-16T11:52:33.872Z,6.60
2023-03-16T11:55:22.898Z,4.75
2023-03-16T11:58:23.642Z,5.15
2023-03-16T12:01:26.295Z,5.43
2023-03-16T12:04:21.257Z,4.97
2023-03-16T12:07:03.915Z,5.15
2023-03-16T12:09:45.662Z,6.60
2023-03-16T12:12:37.955Z,6.78
2023-03-16T12:15:35.424Z,6.43
2023-03-16T12:18:26.987Z,5.10
2023-03-16T12:21:03.862Z,5.53
2023-03-16T12:23:39.857Z,6.03
2023-03-16T12:26:09.081Z,5.40
2023-03-16T12:28:37.783Z,5.53
2023-03-16T12:31:27.978Z,6.45
2023-03-16T12:34:34.927Z,6.22
2023-03-16T12:37:20.568Z,7.53
2023-03-16T12:40:34.204Z,5.88
2023-03-16T12:46:14.617Z,9.77
2023-03-16T12:49:02.313Z,5.87
2023-03-16T12:51:41.846Z,5.97
2023-03-16T12:54:24.168Z,6.88
2023-03-16T12:56:56.042Z,4.88
2023-03-16T12:59:25.522Z,6.07
2023-03-16T13:01:59.777Z,5.13
2023-03-16T13:04:38.799Z,5.63
2023-03-16T13:07:31.613Z,6.00
2023-03-16T13:10:15.192Z,5.55
2023-03-16T13:12:44.684Z,5.53
2023-03-16T13:15:27.222Z,5.10
2023-03-16T13:18:10.182Z,5.95
2023-03-16T13:20:51.773Z,6.45
2023-03-16T13:23:19.446Z,4.72
2023-03-16T13:26:16.672Z,5.35
2023-03-16T13:28:52.847Z,4.40
2023-03-16T13:31:29.608Z,4.47
2023-03-16T13:34:00.580Z,5.55
2023-03-16T13:36:33.009Z,5.72
2023-03-16T13:39:21.309Z,5.47
2023-03-16T13:42:18.129Z,5.80
2023-03-16T13:44:46.559Z,6.55
2023-03-16T13:47:19.375Z,5.90
2023-03-16T13:49:50.553Z,5.38
2023-03-16T13:52:22.880Z,4.95
2023-03-16T13:54:52.840Z,3.67
2023-03-16T13:57:27.998Z,4.22
2023-03-16T14:00:20.504Z,4.75
2023-03-16T14:02:53.695Z,4.20
2023-03-16T14:05:33.727Z,4.55
2023-03-16T14:08:02.458Z,4.00
2023-03-16T14:10:35.890Z,4.85
2023-03-16T14:13:09.798Z,3.92
2023-03-16T14:15:39.351Z,4.10
2023-03-16T14:18:17.086Z,3.90
2023-03-16T14:20:45.488Z,4.18
2023-03-16T14:23:36.697Z,4.18
2023-03-16T14:26:07.217Z,3.90
2023-03-16T14:28:35.160Z,3.55
2023-03-16T14:31:20.053Z,3.47
2023-03-16T14:33:49.277Z,3.78
2023-03-16T14:36:20.106Z,3.80
2023-03-16T14:38:49.527Z,3.60
2023-03-16T14:41:27.864Z,3.30
2023-03-16T14:43:59.246Z,3.22
2023-03-16T14:46:41.806Z,3.85
2023-03-16T14:49:28.390Z,3.78
2023-03-16T14:52:22.740Z,3.42
2023-03-16T14:54:51.797Z,3.38
2023-03-16T14:57:20.652Z,3.65
2023-03-16T14:59:49.718Z,3.85
2023-03-16T15:02:32.701Z,3.53
2023-03-16T15:05:02.500Z,3.53
2023-03-16T15:07:36.136Z,3.38
2023-03-16T15:10:11.244Z,3.20
2023-03-16T15:12:41.509Z,3.33
2023-03-16T15:15:17.609Z,2.03
2023-03-16T15:17:49.508Z,2.05
2023-03-16T15:20:26.576Z,2.33
2023-03-16T15:22:55.587Z,2.47
2023-03-16T15:25:42.459Z,1.77
2023-03-16T15:28:16.921Z,2.40
2023-03-16T15:30:53.822Z,2.53
2023-03-16T15:33:24.613Z,2.63
2023-03-16T15:35:56.153Z,2.30
2023-03-16T15:38:47.843Z,3.13
2023-03-16T15:41:17.460Z,2.95
2023-03-16T15:43:46.747Z,4.07
2023-03-16T15:46:15.702Z,3.53
2023-03-16T15:48:44.636Z,4.18
2023-03-16T15:51:22.359Z,3.55
2023-03-16T15:54:00.294Z,4.00
2023-03-16T15:56:32.346Z,3.20
2023-03-16T15:59:08.162Z,3.67
2023-03-16T16:01:46.445Z,3.60
2023-03-16T16:04:17.787Z,2.10
2023-03-16T16:06:46.404Z,3.33
2023-03-16T16:09:14.482Z,1.73
2023-03-16T16:11:43.270Z,1.95
2023-03-16T16:14:23.630Z,1.65
2023-03-16T16:16:52.236Z,1.80
2023-03-16T16:19:19.817Z,1.67
2023-03-16T16:21:48.312Z,1.58
2023-03-16T16:24:18.087Z,2.33
2023-03-16T16:26:54.873Z,1.60
2023-03-16T16:29:25.488Z,1.52
2023-03-16T16:31:53.094Z,2.22
2023-03-16T16:34:24.799Z,1.75
2023-03-16T16:36:53.302Z,1.65
2023-03-16T16:39:21.315Z,1.90
2023-03-16T16:41:51.087Z,1.60
2023-03-16T16:44:23.876Z,2.30
2023-03-16T16:46:52.582Z,1.95
2023-03-16T16:49:24.229Z,2.22
2023-03-16T16:51:53.391Z,2.38
2023-03-16T16:54:26.183Z,2.00
2023-03-16T16:59:28.338Z,2.08
2023-03-16T17:01:56.756Z,1.60
2023-03-16T17:04:27.241Z,1.85
2023-03-16T17:06:58.999Z,2.10
2023-03-16T17:09:28.223Z,1.75
2023-03-16T17:11:59.144Z,1.45
2023-03-16T17:14:28.659Z,1.67
2023-03-16T17:16:57.329Z,1.85
2023-03-16T17:19:28.158Z,1.55
2023-03-16T17:21:58.562Z,2.08
2023-03-16T17:24:26.095Z,1.95
2023-03-16T17:26:57.660Z,1.92
2023-03-16T17:29:29.417Z,1.38
2023-03-16T17:31:56.606Z,2.00
2023-03-16T17:34:29.424Z,1.98
2023-03-16T17:36:56.837Z,2.10
2023-03-16T17:39:30.117Z,2.03
2023-03-16T17:42:12.331Z,1.92
2023-03-16T17:44:46.128Z,1.75
2023-03-16T17:47:18.531Z,1.63
2023-03-16T17:49:49.101Z,1.98
2023-03-16T17:52:20.018Z,2.03
2023-03-16T17:54:48.578Z,2.28
2023-03-16T17:57:22.954Z,1.70
2023-03-16T17:59:50.526Z,1.65
2023-03-16T18:02:50.110Z,1.60
2023-03-16T18:05:38.701Z,1.85
2023-03-16T18:08:28.418Z,2.03
2023-03-16T18:11:08.056Z,1.90
2023-03-16T18:13:38.508Z,1.30
2023-03-16T18:16:08.841Z,1.60
2023-03-16T18:18:41.951Z,1.77
2023-03-16T18:21:22.373Z,1.00
2023-03-16T18:23:51.155Z,0.90
2023-03-16T18:26:19.944Z,1.92
2023-03-16T18:28:49.263Z,1.67
2023-03-16T18:31:19.427Z,1.48
2023-03-16T18:33:49.694Z,0.82
2023-03-16T18:36:29.963Z,1.92
2023-03-16T18:39:00.163Z,1.23
2023-03-16T18:41:30.124Z,1.75
2023-03-16T18:44:01.020Z,1.35
2023-03-16T18:46:41.941Z,0.90
2023-03-16T18:49:39.461Z,0.90
2023-03-16T18:52:21.308Z,1.95
2023-03-16T18:54:49.365Z,1.23
2023-03-16T18:57:19.744Z,1.45
2023-03-16T18:59:47.875Z,1.52
2023-03-16T19:02:31.017Z,1.75
2023-03-16T19:05:00.637Z,2.05
2023-03-16T19:07:43.323Z,0.88
2023-03-16T19:13:01.139Z,0.85
2023-03-16T19:15:32.178Z,1.40
2023-03-16T19:18:00.654Z,0.52
2023-03-16T19:20:30.701Z,0.98
2023-03-16T19:23:06.971Z,0.82
2023-03-16T19:25:39.949Z,1.10
2023-03-16T19:28:38.319Z,0.68
2023-03-16T19:31:16.593Z,1.33
2023-03-16T19:33:44.320Z,1.00
2023-03-16T19:36:19.260Z,0.70
2023-03-16T19:38:46.764Z,0.60
2023-03-16T19:41:32.653Z,0.38
2023-03-16T19:44:17.136Z,1.25
2023-03-16T19:46:45.533Z,0.60
2023-03-16T19:49:24.435Z,0.60
2023-03-16T19:51:53.401Z,0.68
2023-03-16T19:54:24.619Z,0.52
2023-03-16T19:56:53.985Z,1.05
2023-03-16T19:59:21.505Z,0.80
2023-03-16T20:01:48.988Z,0.77
2023-03-16T20:04:23.355Z,0.52
2023-03-16T20:06:51.217Z,0.55
2023-03-16T20:09:18.788Z,0.60
2023-03-16T20:11:48.090Z,0.88
2023-03-16T20:14:21.269Z,0.57
2023-03-16T20:16:49.646Z,0.60
2023-03-16T20:19:16.895Z,0.82
2023-03-16T20:21:44.376Z,0.50
2023-03-16T20:24:21.155Z,0.80
2023-03-16T20:26:53.753Z,0.88
2023-03-16T20:32:01.547Z,0.63
2023-03-16T20:34:31.799Z,0.60
2023-03-16T20:37:00.000Z,0.77
2023-03-16T20:39:28.064Z,0.88
2023-03-16T20:41:55.944Z,0.60
2023-03-16T20:44:25.695Z,0.70
2023-03-16T20:46:53.487Z,0.50
2023-03-16T20:49:25.403Z,0.90
2023-03-16T20:51:52.887Z,0.77
2023-03-16T20:54:20.893Z,0.65
2023-03-16T20:56:48.306Z,0.85
2023-03-16T20:59:30.320Z,0.60
2023-03-16T21:01:57.711Z,0.52
2023-03-16T21:04:27.934Z,0.57
2023-03-16T21:06:57.029Z,0.63
2023-03-16T21:09:24.260Z,0.40
2023-03-16T21:11:51.954Z,0.60
2023-03-16T21:14:24.664Z,0.43
2023-03-16T21:19:23.123Z,0.30
2023-03-16T21:21:50.985Z,0.25
2023-03-16T21:24:18.279Z,0.55
2023-03-16T21:26:47.824Z,0.65
2023-03-16T21:29:20.903Z,0.45
2023-03-16T21:31:48.836Z,0.35
2023-03-16T21:34:37.140Z,0.30
2023-03-16T21:37:14.385Z,0.43
2023-03-16T21:39:43.444Z,0.25
2023-03-16T21:42:11.234Z,0.50
2023-03-16T21:44:38.508Z,0.80
2023-03-16T21:47:18.433Z,0.73
2023-03-16T21:49:45.810Z,1.23
2023-03-16T21:52:23.750Z,0.73
2023-03-16T21:54:56.204Z,1.50
2023-03-16T21:57:23.929Z,1.13
2023-03-16T21:59:51.434Z,0.60
2023-03-16T22:02:20.782Z,1.00
2023-03-16T22:04:48.964Z,1.08
2023-03-16T22:07:16.862Z,0.60
2023-03-16T22:09:44.112Z,0.52
2023-03-16T22:12:13.556Z,0.47
2023-03-16T22:14:41.350Z,0.73
2023-03-16T22:17:21.127Z,1.25
2023-03-16T22:19:48.901Z,0.38
2023-03-16T22:22:17.632Z,0.28
2023-03-16T22:24:45.566Z,0.68
2023-03-16T22:27:21.840Z,0.75
2023-03-16T22:29:51.366Z,0.60
2023-03-16T22:32:22.247Z,0.68
2023-03-16T22:34:53.219Z,0.38
2023-03-16T22:37:24.544Z,0.63
2023-03-16T22:39:53.018Z,0.63
2023-03-16T22:42:29.587Z,0.63
2023-03-16T22:44:58.209Z,1.10
2023-03-16T22:47:28.818Z,0.60
2023-03-16T22:49:57.150Z,0.25
2023-03-16T22:52:33.692Z,0.70
2023-03-16T22:55:03.465Z,0.40
2023-03-16T22:57:31.492Z,0.68
2023-03-16T23:00:00.150Z,0.50
2023-03-16T23:02:29.261Z,0.40
2023-03-16T23:04:56.519Z,0.43
2023-03-16T23:07:24.363Z,0.40
2023-03-16T23:09:52.699Z,0.30
2023-03-16T23:12:21.877Z,0.50
2023-03-16T23:14:49.625Z,0.77
2023-03-16T23:17:19.987Z,0.35
2023-03-16T23:19:48.390Z,0.70
2023-03-16T23:22:16.600Z,0.60
2023-03-16T23:24:46.038Z,0.40
2023-03-16T23:27:19.434Z,0.40
2023-03-16T23:29:47.009Z,0.68
2023-03-16T23:32:17.397Z,0.80
2023-03-16T23:34:45.441Z,0.60
2023-03-16T23:37:13.209Z,0.85
2023-03-16T23:39:40.548Z,0.75
2023-03-16T23:42:08.204Z,0.43
2023-03-16T23:44:36.649Z,0.90
2023-03-16T23:47:03.916Z,0.40
2023-03-16T23:49:37.872Z,0.70
2023-03-16T23:52:05.654Z,0.55
2023-03-16T23:54:33.643Z,0.68
2023-03-16T23:57:01.396Z,0.73
2023-03-16T23:59:28.961Z,0.82
